Time;durP1;ratioP1;P1;durP2;ratioP2;P2;SDS_P1;SDS_P2;PMS_P1;PMS_P2;Temp;Humidity;BMP_temperature;BMP_pressure;BME280_temperature;BME280_humidity;BME280_pressure;Samples;Min_cycle;Max_cycle;Signal;HPM_P1;HPM_P2
2021/12/26 00:00:39;;;;;;;4.32;2.50;;;-3274.30;59.70;;;;;;5052771;28;20033;-38
2021/12/26 00:03:04;;;;;;;5.45;2.90;;;-3274.20;60.20;;;;;;5053502;28;20485;-38
2021/12/26 00:05:30;;;;;;;7.05;2.75;;;-3274.20;60.50;;;;;;5053623;28;20017;-40
2021/12/26 00:07:56;;;;;;;7.35;2.72;;;-3274.20;60.40;;;;;;5053678;28;20029;-39
2021/12/26 00:10:24;;;;;;;5.55;2.92;;;-3274.10;60.70;;;;;;5053274;28;20060;-38
2021/12/26 00:12:50;;;;;;;5.78;2.42;;;-3274.10;60.80;;;;;;5052376;28;20025;-39
2021/12/26 00:15:16;;;;;;;8.20;2.78;;;-3274.10;60.80;;;;;;5054396;28;20025;-40
2021/12/26 00:17:42;;;;;;;8.35;3.10;;;-3274.10;61.40;;;;;;5053715;28;20499;-38
2021/12/26 00:20:10;;;;;;;6.88;3.08;;;-3274.10;61.20;;;;;;5054061;28;20032;-39
2021/12/26 00:22:36;;;;;;;3.97;2.20;;;-3274.10;61.10;;;;;;5052842;28;20029;-39
2021/12/26 00:25:03;;;;;;;3.35;2.47;;;-3274.10;61.00;;;;;;5053786;28;20092;-40
2021/12/26 00:27:29;;;;;;;7.70;2.95;;;-3274.20;60.70;;;;;;5054537;28;20029;-39
2021/12/26 00:29:54;;;;;;;8.50;3.97;;;-3274.30;60.50;;;;;;5054139;28;20397;-39
2021/12/26 00:32:21;;;;;;;5.93;2.25;;;-3274.30;60.60;;;;;;5054027;28;20032;-40
2021/12/26 00:34:50;;;;;;;7.72;3.70;;;-3274.40;60.60;;;;;;5052975;28;20036;-40
2021/12/26 00:37:16;;;;;;;5.28;2.88;;;-3274.50;60.30;;;;;;5052812;28;20017;-39
2021/12/26 00:39:42;;;;;;;5.60;2.50;;;-3274.50;60.30;;;;;;5053613;28;20025;-38
2021/12/26 00:42:08;;;;;;;9.55;3.50;;;-3274.40;60.30;;;;;;5053745;28;20031;-39
2021/12/26 00:44:39;;;;;;;8.18;3.47;;;-3274.40;60.50;;;;;;5053551;28;20052;-39
2021/12/26 00:47:11;;;;;;;4.47;2.45;;;-3274.40;60.10;;;;;;5053735;28;20487;-39
2021/12/26 00:49:38;;;;;;;4.60;2.35;;;-3274.40;60.50;;;;;;5053512;28;20025;-39
2021/12/26 00:52:05;;;;;;;3.45;2.20;;;-3274.30;60.50;;;;;;5054151;28;20049;-40
2021/12/26 00:54:32;;;;;;;8.32;2.60;;;-3274.40;60.80;;;;;;5052449;28;20048;-41
2021/12/26 00:57:01;;;;;;;7.55;3.15;;;-3274.30;60.70;;;;;;5053706;28;20029;-39
2021/12/26 00:59:27;;;;;;;3.38;2.15;;;-3274.30;60.60;;;;;;5053436;28;20130;-39
2021/12/26 01:01:54;;;;;;;6.10;2.78;;;-3274.30;60.20;;;;;;5053574;28;20045;-39
2021/12/26 01:04:20;;;;;;;4.80;2.28;;;-3274.30;60.40;;;;;;5052189;28;20108;-40
2021/12/26 01:06:46;;;;;;;6.15;3.13;;;-3274.30;60.30;;;;;;5053348;28;20469;-38
2021/12/26 01:09:17;;;;;;;4.53;2.30;;;-3274.40;60.10;;;;;;5053313;28;20031;-39
2021/12/26 01:11:48;;;;;;;;;;;-3274.30;60.00;;;;;;5052381;28;20057;-38
2021/12/26 01:14:16;;;;;;;2.72;1.90;;;-3274.30;60.10;;;;;;5053505;28;19974;-38
2021/12/26 01:16:44;;;;;;;5.50;2.13;;;-3274.30;60.00;;;;;;5051466;28;20446;-38
2021/12/26 01:19:14;;;;;;;7.22;3.50;;;-3274.20;60.00;;;;;;5052967;28;20052;-39
2021/12/26 01:21:41;;;;;;;5.05;1.95;;;-3274.20;60.30;;;;;;5053419;28;20021;-39
2021/12/26 01:24:13;;;;;;;3.80;2.22;;;-3274.20;60.30;;;;;;5056543;28;20485;-48
2021/12/26 01:26:39;;;;;;;5.13;2.22;;;-3274.20;60.70;;;;;;5056905;28;20021;-49
2021/12/26 01:29:06;;;;;;;4.40;2.70;;;-3274.20;60.60;;;;;;5055142;28;20032;-50
2021/12/26 01:31:32;;;;;;;6.15;3.28;;;-3274.10;60.80;;;;;;5056711;28;20023;-50
2021/12/26 01:34:00;;;;;;;3.80;2.00;;;-3274.00;60.60;;;;;;5056392;28;20037;-50
2021/12/26 01:36:27;;;;;;;5.07;2.88;;;-3274.00;60.70;;;;;;5056621;28;20151;-49
2021/12/26 01:38:56;;;;;;;8.80;3.15;;;-3274.00;60.80;;;;;;5056640;28;20028;-52
2021/12/26 01:41:23;;;;;;;5.45;2.67;;;-3274.10;61.10;;;;;;5056197;28;20086;-49
2021/12/26 01:43:52;;;;;;;8.30;2.75;;;-3274.00;61.30;;;;;;5056501;28;20028;-49
2021/12/26 01:46:19;;;;;;;6.65;2.10;;;-3273.90;61.30;;;;;;5056152;28;20029;-50
2021/12/26 01:48:45;;;;;;;5.07;2.20;;;-3273.90;61.10;;;;;;5056151;28;20075;-53
2021/12/26 01:51:10;;;;;;;3.00;1.60;;;-3273.90;61.30;;;;;;5056052;28;20025;-52
2021/12/26 01:53:38;;;;;;;4.68;2.65;;;-3273.90;61.50;;;;;;5055824;28;20029;-53
2021/12/26 01:56:08;;;;;;;4.50;2.85;;;-3274.00;61.30;;;;;;5056833;28;20036;-50
2021/12/26 01:58:35;;;;;;;5.00;2.58;;;-3274.00;61.10;;;;;;5055565;28;20021;-49
2021/12/26 02:01:12;;;;;;;4.10;1.75;;;-3274.00;60.70;;;;;;5055713;28;20127;-50
2021/12/26 02:03:39;;;;;;;4.80;2.70;;;-3273.90;61.30;;;;;;5055724;28;20028;-53
2021/12/26 02:06:07;;;;;;;5.78;2.70;;;-3274.00;60.70;;;;;;5054488;28;20036;-48
2021/12/26 02:08:34;;;;;;;6.25;2.58;;;-3274.00;60.40;;;;;;5055649;28;20052;-50
2021/12/26 02:11:02;;;;;;;3.65;2.28;;;-3274.00;60.80;;;;;;5055822;28;20025;-54
2021/12/26 02:13:28;;;;;;;6.85;3.88;;;-3274.00;60.40;;;;;;5056159;28;20025;-53
2021/12/26 02:15:55;;;;;;;4.15;2.22;;;-3273.90;60.50;;;;;;5055673;28;20025;-53
2021/12/26 02:18:21;;;;;;;2.25;1.60;;;-3274.00;60.50;;;;;;5055629;28;20025;-49
2021/12/26 02:21:19;;;;;;;3.92;2.22;;;-3273.90;60.20;;;;;;5054771;28;20277;-49
2021/12/26 02:28:41;;;;;;;5.40;3.50;;;-3274.10;60.00;;;;;;5055631;28;20021;-48
2021/12/26 02:31:07;;;;;;;5.40;2.38;;;-3274.10;60.30;;;;;;5055543;28;20013;-51
2021/12/26 02:33:33;;;;;;;4.20;2.05;;;-3274.10;60.00;;;;;;5054708;28;20029;-48
2021/12/26 02:35:59;;;;;;;3.50;2.20;;;-3274.10;59.80;;;;;;5056280;28;20035;-52
2021/12/26 02:38:25;;;;;;;4.18;2.33;;;-3274.00;59.70;;;;;;5055354;28;20111;-48
2021/12/26 02:40:54;;;;;;;4.13;2.58;;;-3274.00;60.00;;;;;;5055639;28;20390;-50
2021/12/26 02:43:22;;;;;;;3.83;2.40;;;-3274.20;59.80;;;;;;5055658;28;20025;-48
2021/12/26 02:45:49;;;;;;;7.43;2.53;;;-3274.20;59.50;;;;;;5056613;28;20051;-50
2021/12/26 02:48:15;;;;;;;2.60;1.85;;;-3274.20;59.80;;;;;;5055574;28;20397;-50
2021/12/26 02:50:42;;;;;;;4.38;2.00;;;-3274.20;59.70;;;;;;5056808;28;20034;-50
2021/12/26 02:53:11;;;;;;;6.55;2.70;;;-3274.20;59.20;;;;;;5055828;28;20025;-48
2021/12/26 02:55:36;;;;;;;5.80;2.20;;;-3274.20;59.50;;;;;;5055671;28;20032;-50
2021/12/26 02:58:07;;;;;;;7.00;3.38;;;-3274.20;59.10;;;;;;5055145;28;20032;-48
2021/12/26 03:00:54;;;;;;;7.80;2.33;;;-3274.20;59.50;;;;;;5056236;28;20385;-50
2021/12/26 03:03:20;;;;;;;6.00;3.10;;;-3274.20;59.20;;;;;;5053801;28;20116;-49
2021/12/26 03:05:55;;;;;;;4.80;1.95;;;-3274.40;58.60;;;;;;5055951;28;20062;-49
2021/12/26 03:08:21;;;;;;;9.48;2.83;;;-3274.30;59.20;;;;;;5054817;28;20017;-53
2021/12/26 03:10:47;;;;;;;7.65;2.60;;;-3274.40;58.80;;;;;;5056376;28;20372;-50
2021/12/26 03:13:14;;;;;;;6.55;2.78;;;-3274.30;58.30;;;;;;5055546;28;20104;-52
2021/12/26 03:15:41;;;;;;;4.80;1.98;;;-3274.30;58.70;;;;;;5055011;28;20107;-50
2021/12/26 03:18:08;;;;;;;3.90;2.53;;;-3274.20;59.40;;;;;;5055019;28;20029;-50
2021/12/26 03:20:39;;;;;;;6.80;2.95;;;-3274.30;58.90;;;;;;5054374;28;20166;-50
2021/12/26 03:23:07;;;;;;;4.03;2.20;;;-3274.30;59.10;;;;;;5057427;28;20111;-37
2021/12/26 03:25:33;;;;;;;7.50;3.03;;;-3274.30;59.10;;;;;;5055538;28;20029;-38
2021/12/26 03:27:59;;;;;;;5.38;3.40;;;-3274.30;58.60;;;;;;5054917;28;20020;-37
2021/12/26 03:30:27;;;;;;;2.05;1.77;;;-3274.40;58.80;;;;;;5057036;28;20476;-38
2021/12/26 03:32:54;;;;;;;3.03;1.83;;;-3274.40;58.60;;;;;;5057043;28;20021;-38
2021/12/26 03:35:23;;;;;;;7.80;2.60;;;-3274.40;58.60;;;;;;5055414;28;20029;-38
2021/12/26 03:37:49;;;;;;;4.38;2.15;;;-3274.40;59.10;;;;;;5054963;28;20119;-38
2021/12/26 03:40:15;;;;;;;9.70;2.28;;;-3274.50;59.10;;;;;;5053503;28;20029;-48
2021/12/26 03:42:41;;;;;;;6.00;2.67;;;-3274.50;58.80;;;;;;5054456;28;20044;-38
2021/12/26 03:45:09;;;;;;;5.97;2.05;;;-3274.30;59.30;;;;;;5053832;28;20064;-38
2021/12/26 03:47:36;;;;;;;6.57;2.25;;;-3274.50;59.10;;;;;;5054064;28;20092;-37
2021/12/26 03:50:04;;;;;;;4.68;1.98;;;-3274.50;59.50;;;;;;5052370;28;20396;-37
2021/12/26 03:52:30;;;;;;;5.72;2.15;;;-3274.40;59.60;;;;;;5054324;28;20021;-37
2021/12/26 03:54:56;;;;;;;4.97;2.63;;;-3274.50;59.70;;;;;;5054820;28;20032;-38
2021/12/26 03:57:22;;;;;;;3.88;2.03;;;-3274.60;59.60;;;;;;5055146;28;20021;-38
2021/12/26 03:59:47;;;;;;;3.28;1.98;;;-3274.60;59.40;;;;;;5054201;28;20025;-38
2021/12/26 04:02:15;;;;;;;4.25;2.20;;;-3274.60;59.70;;;;;;5054237;28;20049;-38
2021/12/26 04:04:42;;;;;;;3.63;2.28;;;-3274.50;59.70;;;;;;5054043;28;20029;-38
2021/12/26 04:07:10;;;;;;;3.22;2.33;;;-3274.50;59.90;;;;;;5054946;28;20048;-39
2021/12/26 04:09:36;;;;;;;4.55;2.25;;;-3274.50;59.80;;;;;;5054645;28;20088;-44
2021/12/26 04:12:02;;;;;;;5.00;3.65;;;-3274.40;60.10;;;;;;5054119;28;20025;-38
2021/12/26 04:14:28;;;;;;;6.00;2.20;;;-3274.40;60.40;;;;;;5054422;28;20056;-38
2021/12/26 04:16:53;;;;;;;3.10;2.38;;;-3274.40;60.40;;;;;;5054689;28;20036;-38
2021/12/26 04:19:19;;;;;;;3.95;2.08;;;-3274.40;60.40;;;;;;5053857;28;20409;-38
2021/12/26 04:21:45;;;;;;;4.07;1.85;;;-3274.40;60.30;;;;;;5053810;28;20104;-50
2021/12/26 04:24:11;;;;;;;3.38;1.92;;;-3274.40;60.80;;;;;;5052510;28;20021;-49
2021/12/26 04:26:37;;;;;;;2.38;1.52;;;-3274.30;60.30;;;;;;5053600;28;20029;-47
2021/12/26 04:29:03;;;;;;;4.80;2.05;;;-3274.20;60.60;;;;;;5054728;28;20104;-48
2021/12/26 04:31:28;;;;;;;3.28;1.98;;;-3274.20;60.90;;;;;;5053026;28;20130;-50
2021/12/26 04:33:54;;;;;;;3.88;2.60;;;-3274.30;61.40;;;;;;5054075;28;20028;-50
2021/12/26 04:36:21;;;;;;;4.10;2.10;;;-3274.50;60.90;;;;;;5054471;28;20381;-49
2021/12/26 04:38:47;;;;;;;3.83;2.30;;;-3274.40;61.00;;;;;;5053476;28;20476;-49
2021/12/26 04:41:13;;;;;;;3.78;2.13;;;-3274.40;61.20;;;;;;5053692;28;20028;-49
2021/12/26 04:43:39;;;;;;;5.20;2.92;;;-3274.30;61.10;;;;;;5053447;28;20329;-47
2021/12/26 04:46:06;;;;;;;4.78;2.60;;;-3274.30;61.50;;;;;;5055257;28;20096;-48
2021/12/26 04:48:36;;;;;;;3.03;1.67;;;-3274.20;61.40;;;;;;5052767;28;20021;-48
2021/12/26 04:51:03;;;;;;;5.00;1.88;;;-3274.20;61.60;;;;;;5054496;28;20029;-49
2021/12/26 04:53:29;;;;;;;4.47;2.10;;;-3274.20;61.80;;;;;;5053645;28;20025;-49
2021/12/26 04:55:54;;;;;;;2.85;2.00;;;-3274.20;61.90;;;;;;5054329;28;20029;-48
2021/12/26 04:58:20;;;;;;;10.80;2.55;;;-3274.20;61.70;;;;;;5055845;28;20025;-49
2021/12/26 05:00:46;;;;;;;6.35;1.85;;;-3274.30;61.60;;;;;;5055771;28;20116;-50
2021/12/26 05:03:13;;;;;;;3.75;2.08;;;-3274.30;61.60;;;;;;5056702;28;20053;-50
2021/12/26 05:05:39;;;;;;;2.83;1.85;;;-3274.30;61.80;;;;;;5057048;28;20162;-48
2021/12/26 05:08:05;;;;;;;3.15;1.50;;;-3274.30;61.90;;;;;;5057184;28;20039;-52
2021/12/26 05:10:32;;;;;;;4.15;1.98;;;-3274.30;62.30;;;;;;5056604;28;20048;-48
2021/12/26 05:12:59;;;;;;;7.18;2.72;;;-3274.30;61.80;;;;;;5057092;28;20029;-48
2021/12/26 05:15:25;;;;;;;4.13;2.42;;;-3274.30;62.10;;;;;;5056597;28;20107;-50
2021/12/26 05:17:52;;;;;;;3.38;1.95;;;-3274.30;62.20;;;;;;5056632;28;20033;-50
2021/12/26 05:20:18;;;;;;;4.32;2.72;;;-3274.30;62.30;;;;;;5057512;28;20108;-48
2021/12/26 05:22:46;;;;;;;6.78;2.95;;;-3274.30;62.30;;;;;;5056822;28;20051;-48
2021/12/26 05:25:11;;;;;;;4.90;2.45;;;-3274.30;62.30;;;;;;5056211;28;20018;-48
2021/12/26 05:27:38;;;;;;;8.85;3.47;;;-3274.30;62.40;;;;;;5056406;28;20556;-49
2021/12/26 05:30:10;;;;;;;7.70;2.88;;;-3274.30;62.20;;;;;;5056419;28;20430;-50
2021/12/26 05:32:36;;;;;;;7.20;2.97;;;-3274.40;62.20;;;;;;5055893;28;20017;-50
2021/12/26 05:35:02;;;;;;;3.83;2.20;;;-3274.40;62.40;;;;;;5055862;28;20074;-49
2021/12/26 05:37:28;;;;;;;4.78;2.47;;;-3274.50;62.10;;;;;;5055653;28;20017;-50
2021/12/26 05:39:55;;;;;;;3.15;1.35;;;-3274.50;62.20;;;;;;5055925;28;20394;-49
2021/12/26 05:42:21;;;;;;;8.75;3.03;;;-3274.50;62.40;;;;;;5055462;28;20032;-49
2021/12/26 05:44:48;;;;;;;6.50;2.92;;;-3274.60;61.90;;;;;;5055555;28;20021;-50
2021/12/26 05:47:14;;;;;;;8.15;3.78;;;-3274.50;62.00;;;;;;5055859;28;20493;-48
2021/12/26 05:49:40;;;;;;;8.00;3.33;;;-3274.60;62.10;;;;;;5055527;28;20374;-49
2021/12/26 05:52:07;;;;;;;6.70;2.60;;;-3274.60;61.80;;;;;;5055270;28;20021;-50
2021/12/26 05:54:33;;;;;;;5.00;2.35;;;-3274.70;62.30;;;;;;5054725;28;20084;-50
2021/12/26 05:57:00;;;;;;;12.63;3.17;;;-3274.60;61.70;;;;;;5056023;28;20033;-53
2021/12/26 05:59:25;;;;;;;5.53;2.60;;;-3274.70;62.10;;;;;;5055344;28;20040;-48
2021/12/26 06:01:51;;;;;;;8.80;3.35;;;-3274.60;62.20;;;;;;5054960;28;20060;-50
2021/12/26 06:04:17;;;;;;;4.30;3.08;;;-3274.70;62.20;;;;;;5055079;28;20033;-48
2021/12/26 06:06:44;;;;;;;4.75;2.78;;;-3274.70;62.20;;;;;;5053911;28;20059;-48
2021/12/26 06:09:10;;;;;;;4.63;2.75;;;-3274.70;62.30;;;;;;5054415;28;20520;-49
2021/12/26 06:11:36;;;;;;;6.95;3.28;;;-3274.70;62.30;;;;;;5055008;28;20354;-50
2021/12/26 06:14:02;;;;;;;5.57;2.95;;;-3274.70;62.30;;;;;;5055180;28;20079;-48
2021/12/26 06:16:27;;;;;;;6.20;3.20;;;-3274.70;62.30;;;;;;5055237;28;20493;-49
2021/12/26 06:18:53;;;;;;;5.30;3.15;;;-3274.70;62.50;;;;;;5055249;28;20029;-48
2021/12/26 06:21:19;;;;;;;4.75;2.78;;;-3274.80;62.50;;;;;;5055160;28;20037;-50
2021/12/26 06:23:50;;;;;;;8.55;3.55;;;-3274.90;62.30;;;;;;5054866;28;20029;-48
2021/12/26 06:26:23;;;;;;;8.25;5.05;;;-3274.90;62.10;;;;;;5054873;28;20025;-47
2021/12/26 06:28:50;;;;;;;7.70;3.38;;;-3274.90;62.60;;;;;;5054933;28;20373;-49
2021/12/26 06:31:16;;;;;;;7.85;3.83;;;-3274.80;62.80;;;;;;5054673;28;20024;-48
2021/12/26 06:33:42;;;;;;;5.60;3.17;;;-3274.80;62.70;;;;;;5054649;28;20028;-48
2021/12/26 06:36:08;;;;;;;4.03;3.05;;;-3274.80;63.10;;;;;;5054727;28;20437;-47
2021/12/26 06:38:35;;;;;;;7.45;3.22;;;-3274.80;63.40;;;;;;5053312;28;20025;-48
2021/12/26 06:41:04;;;;;;;7.45;3.13;;;-3274.80;63.20;;;;;;5053072;28;20051;-50
2021/12/26 06:43:30;;;;;;;5.55;2.90;;;-3274.80;63.30;;;;;;5054462;28;20457;-49
2021/12/26 06:45:56;;;;;;;6.63;3.70;;;-3274.90;63.10;;;;;;5054306;28;20031;-49
2021/12/26 06:48:22;;;;;;;6.40;3.13;;;-3274.80;63.40;;;;;;5054555;28;20028;-49
2021/12/26 06:50:48;;;;;;;6.22;3.50;;;-3274.90;63.70;;;;;;5054590;28;20037;-51
2021/12/26 06:53:14;;;;;;;5.50;3.53;;;-3274.80;63.50;;;;;;5052972;28;20032;-49
2021/12/26 06:55:39;;;;;;;6.28;3.75;;;-3275.00;63.60;;;;;;5054488;28;20504;-48
2021/12/26 06:58:06;;;;;;;6.40;2.63;;;-3275.00;63.30;;;;;;5054649;28;20024;-49
2021/12/26 07:00:32;;;;;;;9.68;4.20;;;-3275.00;63.70;;;;;;5054192;28;20029;-49
2021/12/26 07:02:58;;;;;;;7.45;3.03;;;-3275.10;63.50;;;;;;5053954;28;20315;-50
2021/12/26 07:05:23;;;;;;;8.15;3.30;;;-3275.00;63.60;;;;;;5053943;28;20090;-50
2021/12/26 07:07:49;;;;;;;9.00;3.17;;;-3275.00;64.00;;;;;;5053651;28;20017;-48
2021/12/26 07:10:17;;;;;;;9.70;3.53;;;-3275.00;64.00;;;;;;5054245;28;20025;-52
2021/12/26 07:12:44;;;;;;;13.13;3.72;;;-3275.00;63.90;;;;;;5054541;28;20067;-52
2021/12/26 07:15:10;;;;;;;5.68;3.25;;;-3275.00;64.20;;;;;;5052967;28;20025;-49
2021/12/26 07:17:36;;;;;;;6.38;2.90;;;-3275.00;63.90;;;;;;5053737;28;20025;-51
2021/12/26 07:20:03;;;;;;;5.97;3.25;;;-3275.00;64.20;;;;;;5052787;28;20361;-50
2021/12/26 07:22:29;;;;;;;4.65;3.05;;;-3274.90;64.40;;;;;;5053717;28;20021;-49
2021/12/26 07:24:54;;;;;;;5.72;3.53;;;-3274.80;64.60;;;;;;5053764;28;20032;-48
2021/12/26 07:27:20;;;;;;;7.47;3.38;;;-3275.00;64.80;;;;;;5053561;28;20083;-48
2021/12/26 07:29:46;;;;;;;6.45;3.22;;;-3274.90;64.80;;;;;;5053680;28;20071;-49
2021/12/26 07:32:11;;;;;;;5.38;3.28;;;-3275.00;64.80;;;;;;5053493;28;20078;-49
2021/12/26 07:34:39;;;;;;;5.57;3.28;;;-3275.00;64.90;;;;;;5052045;28;20036;-53
2021/12/26 07:37:06;;;;;;;8.65;2.78;;;-3275.10;64.70;;;;;;5053800;28;20044;-52
2021/12/26 07:39:32;;;;;;;7.30;3.63;;;-3275.10;64.80;;;;;;5053572;28;20084;-50
2021/12/26 07:41:57;;;;;;;11.18;3.78;;;-3275.00;65.20;;;;;;5053760;28;20112;-39
2021/12/26 07:44:23;;;;;;;10.43;3.67;;;-3275.10;65.10;;;;;;5053266;28;20024;-38
2021/12/26 07:46:49;;;;;;;10.88;3.25;;;-3275.10;65.00;;;;;;5053544;28;20473;-38
2021/12/26 07:49:16;;;;;;;7.07;3.47;;;-3275.10;65.00;;;;;;5054270;28;20049;-38
2021/12/26 07:51:43;;;;;;;7.13;3.30;;;-3275.20;64.90;;;;;;5053976;28;20021;-39
2021/12/26 07:54:12;;;;;;;4.72;2.92;;;-3275.20;65.10;;;;;;5053339;28;20051;-38
2021/12/26 07:56:38;;;;;;;9.50;3.90;;;-3275.20;65.10;;;;;;5053615;28;20040;-38
2021/12/26 07:59:03;;;;;;;6.72;3.88;;;-3275.20;65.10;;;;;;5053502;28;20036;-38
2021/12/26 08:01:29;;;;;;;5.70;3.00;;;-3275.10;65.70;;;;;;5053823;28;20131;-38
2021/12/26 08:03:56;;;;;;;5.45;3.22;;;-3275.20;65.60;;;;;;5053119;28;20029;-38
2021/12/26 08:06:22;;;;;;;12.52;4.13;;;-3275.20;65.60;;;;;;5053403;28;20021;-38
2021/12/26 08:08:49;;;;;;;14.02;3.63;;;-3275.20;66.10;;;;;;5053568;28;20025;-38
2021/12/26 08:11:15;;;;;;;10.80;4.13;;;-3275.20;65.80;;;;;;5052325;28;20465;-38
2021/12/26 08:13:42;;;;;;;7.13;3.60;;;-3275.30;66.10;;;;;;5053465;28;20025;-39
2021/12/26 08:16:08;;;;;;;8.90;3.70;;;-3275.10;66.00;;;;;;5053333;28;20496;-40
2021/12/26 08:18:34;;;;;;;7.13;4.03;;;-3275.10;66.60;;;;;;5053549;28;20078;-38
2021/12/26 08:21:00;;;;;;;7.80;3.72;;;-3275.10;66.50;;;;;;5052332;28;20044;-38
2021/12/26 08:23:27;;;;;;;7.50;5.07;;;-3275.10;66.40;;;;;;5052789;28;20020;-38
2021/12/26 08:25:56;;;;;;;6.60;4.10;;;-3275.10;66.70;;;;;;5053498;28;20478;-39
2021/12/26 08:28:22;;;;;;;6.93;3.63;;;-3275.20;66.80;;;;;;5054334;28;20017;-39
2021/12/26 08:30:48;;;;;;;7.25;3.35;;;-3275.40;66.60;;;;;;5053359;28;20031;-38
2021/12/26 08:33:14;;;;;;;5.72;3.35;;;-3275.20;66.80;;;;;;5057517;28;20085;-39
2021/12/26 08:35:45;;;;;;;5.13;3.78;;;-3275.30;66.80;;;;;;5057584;28;20509;-38
2021/12/26 08:38:13;;;;;;;4.47;3.50;;;-3275.40;66.30;;;;;;5057488;28;20122;-38
2021/12/26 08:40:38;;;;;;;5.50;3.47;;;-3275.40;66.60;;;;;;5057866;28;20086;-39
2021/12/26 08:43:05;;;;;;;5.45;3.33;;;-3275.50;66.60;;;;;;5056672;28;20029;-39
2021/12/26 08:45:31;;;;;;;6.40;3.75;;;-3275.60;66.90;;;;;;5057197;28;20492;-38
2021/12/26 08:47:57;;;;;;;6.07;3.40;;;-3275.50;67.00;;;;;;5057320;28;20068;-38
2021/12/26 08:50:25;;;;;;;6.72;4.88;;;-3275.50;66.70;;;;;;5057926;28;20017;-47
2021/12/26 08:52:51;;;;;;;6.43;3.42;;;-3275.60;67.30;;;;;;5056995;28;20492;-38
2021/12/26 08:55:18;;;;;;;6.90;3.72;;;-3275.60;66.90;;;;;;5057345;28;20036;-40
2021/12/26 08:57:44;;;;;;;7.60;3.65;;;-3275.70;67.10;;;;;;5057302;28;20021;-39
2021/12/26 09:00:11;;;;;;;10.25;5.65;;;-3275.80;66.70;;;;;;5056940;28;20484;-40
2021/12/26 09:02:38;;;;;;;9.80;4.57;;;-3275.90;66.30;;;;;;5055336;28;20056;-39
2021/12/26 09:05:04;;;;;;;8.63;3.55;;;-3275.90;66.60;;;;;;5055689;28;20029;-38
2021/12/26 09:07:30;;;;;;;6.32;3.67;;;-3275.90;67.00;;;;;;5056655;28;20029;-38
2021/12/26 09:09:57;;;;;;;9.07;4.57;;;-3275.90;66.60;;;;;;5057371;28;20556;-38
2021/12/26 09:12:23;;;;;;;11.40;4.57;;;-3275.90;67.30;;;;;;5057870;28;20523;-37
2021/12/26 09:14:50;;;;;;;7.90;4.15;;;-3275.90;67.20;;;;;;5056875;28;20053;-38
2021/12/26 09:17:15;;;;;;;12.23;5.25;;;-3276.00;66.90;;;;;;5056994;28;20416;-38
2021/12/26 09:19:41;;;;;;;9.00;4.38;;;-3275.90;68.00;;;;;;5057915;28;20025;-38
2021/12/26 09:22:10;;;;;;;9.90;5.65;;;-3276.00;67.90;;;;;;5056821;28;20036;-38
2021/12/26 09:24:36;;;;;;;9.07;4.38;;;-3276.10;67.50;;;;;;5056266;28;20033;-38
2021/12/26 09:27:03;;;;;;;7.45;4.18;;;-3276.10;67.90;;;;;;5056763;28;20441;-38
2021/12/26 09:29:28;;;;;;;6.72;3.75;;;-3276.20;67.30;;;;;;5056873;28;20418;-38
2021/12/26 09:31:56;;;;;;;10.38;4.03;;;-3276.30;66.80;;;;;;5056576;28;20088;-38
2021/12/26 09:34:23;;;;;;;7.75;4.13;;;-3276.20;67.50;;;;;;5056950;28;20032;-38
2021/12/26 09:36:49;;;;;;;9.27;4.47;;;-3276.10;67.80;;;;;;5056461;28;20043;-39
2021/12/26 09:39:16;;;;;;;11.13;4.82;;;-3276.20;67.50;;;;;;5055240;28;20095;-38
2021/12/26 09:41:42;;;;;;;6.53;4.43;;;-3276.30;67.80;;;;;;5056125;28;20028;-40
2021/12/26 09:44:08;;;;;;;7.85;4.32;;;-3276.30;67.50;;;;;;5055486;28;20032;-38
2021/12/26 09:46:35;;;;;;;8.35;5.15;;;-3276.30;68.00;;;;;;5056966;28;20100;-38
2021/12/26 09:49:01;;;;;;;6.18;4.22;;;-3276.40;67.30;;;;;;5054602;28;20047;-37
2021/12/26 09:51:27;;;;;;;8.70;5.05;;;-3276.20;67.80;;;;;;5057325;28;20029;-39
2021/12/26 09:53:53;;;;;;;7.28;5.20;;;-3276.20;68.60;;;;;;5057639;28;20031;-39
2021/12/26 09:56:19;;;;;;;11.15;5.22;;;-3276.60;67.60;;;;;;5039259;28;20029;-39
2021/12/26 09:58:55;;;;;;;8.15;4.78;;;-3276.70;66.90;;;;;;5059247;28;20036;-38
2021/12/26 10:01:51;;;;;;;8.85;4.40;;;-3276.70;67.30;;;;;;5059231;28;20044;-39
2021/12/26 10:04:32;;;;;;;9.50;5.03;;;-3276.70;67.40;;;;;;5055954;28;20052;-38
2021/12/26 10:07:03;;;;;;;;;;;0.00;66.80;;;;;;5057302;28;20028;-37
2021/12/26 10:09:29;;;;;;;;;;;-3276.60;67.40;;;;;;5056975;28;19904;-38
2021/12/26 10:11:58;;;;;;;8.40;4.78;;;-3276.60;67.60;;;;;;5057966;28;19944;-38
2021/12/26 10:14:33;;;;;;;13.02;5.28;;;-3276.60;68.20;;;;;;5055534;28;20078;-39
2021/12/26 10:17:04;;;;;;;12.05;5.32;;;-3276.70;67.90;;;;;;5055602;28;20426;-38
2021/12/26 10:19:34;;;;;;;8.57;4.70;;;-3276.70;67.90;;;;;;5056175;28;20025;-38
2021/12/26 10:22:01;;;;;;;10.83;6.03;;;-3276.70;67.90;;;;;;5056067;28;20025;-39
2021/12/26 10:24:30;;;;;;;10.57;6.55;;;-3276.60;68.30;;;;;;5055059;28;20056;-38
2021/12/26 10:26:59;;;;;;;10.32;5.32;;;-3276.70;68.70;;;;;;5055402;28;20539;-38
2021/12/26 10:29:33;;;;;;;13.73;6.28;;;-3276.70;68.70;;;;;;5055861;28;20441;-38
2021/12/26 10:32:07;;;;;;;10.15;5.13;;;-3276.60;69.60;;;;;;5055820;28;20028;-38
2021/12/26 10:34:56;;;;;;;8.35;5.03;;;0.00;69.40;;;;;;5055943;28;20541;-39
2021/12/26 10:37:25;;;;;;;10.68;5.78;;;0.10;68.60;;;;;;5055391;28;20147;-49
2021/12/26 10:39:57;;;;;;;10.38;5.30;;;0.20;68.30;;;;;;5055577;28;20035;-50
2021/12/26 10:42:28;;;;;;;11.40;5.78;;;0.30;67.50;;;;;;5055186;28;20024;-47
2021/12/26 10:44:58;;;;;;;9.27;6.22;;;0.10;68.40;;;;;;5055488;28;20142;-48
2021/12/26 10:47:33;;;;;;;11.90;7.20;;;0.10;68.40;;;;;;5056092;28;20009;-46
2021/12/26 10:50:06;;;;;;;9.82;5.53;;;0.10;68.50;;;;;;5055230;28;20504;-50
2021/12/26 10:52:36;;;;;;;9.57;5.10;;;0.00;68.80;;;;;;5053934;28;20021;-48
2021/12/26 10:55:33;;;;;;;13.75;5.88;;;0.00;69.20;;;;;;5055209;28;20082;-50
2021/12/26 10:58:05;;;;;;;12.73;6.97;;;0.10;69.10;;;;;;5055161;28;20071;-54
2021/12/26 11:00:39;;;;;;;14.80;7.18;;;0.30;68.80;;;;;;5054915;28;20033;-51
2021/12/26 11:03:08;;;;;;;10.48;6.03;;;0.30;69.00;;;;;;5054732;28;20052;-49
2021/12/26 11:05:42;;;;;;;10.00;6.57;;;0.40;68.80;;;;;;5054952;28;20029;-48
2021/12/26 11:08:12;;;;;;;12.68;7.45;;;0.40;69.10;;;;;;5055266;28;20484;-49
2021/12/26 11:10:46;;;;;;;10.43;6.78;;;0.30;69.20;;;;;;5054505;28;20127;-49
2021/12/26 11:13:31;;;;;;;10.93;6.22;;;0.40;69.40;;;;;;5054898;28;20097;-48
2021/12/26 11:16:06;;;;;;;13.63;6.93;;;0.50;69.60;;;;;;5054109;28;20228;-50
2021/12/26 11:18:33;;;;;;;11.77;7.10;;;0.50;69.30;;;;;;5054731;28;20025;-49
2021/12/26 11:21:00;;;;;;;10.55;6.78;;;0.40;69.80;;;;;;5053023;28;20025;-50
2021/12/26 11:23:29;;;;;;;15.93;6.60;;;0.50;69.90;;;;;;5053672;28;20048;-48
2021/12/26 11:25:57;;;;;;;10.68;7.00;;;0.40;70.40;;;;;;5053090;28;20017;-50
2021/12/26 11:28:26;;;;;;;12.93;6.97;;;0.70;70.00;;;;;;5054355;28;20021;-50
2021/12/26 11:30:58;;;;;;;14.30;7.88;;;0.80;69.80;;;;;;5054218;28;20489;-51
2021/12/26 11:33:24;;;;;;;14.52;7.40;;;1.10;69.00;;;;;;5053546;28;20091;-49
2021/12/26 11:35:52;;;;;;;9.32;6.00;;;1.10;68.90;;;;;;5051966;28;20443;-49
2021/12/26 11:38:22;;;;;;;11.25;6.45;;;0.90;70.20;;;;;;5053739;28;20028;-50
2021/12/26 11:40:51;;;;;;;14.57;7.25;;;1.10;69.60;;;;;;5054215;28;20086;-48
2021/12/26 11:43:47;;;;;;;13.68;6.80;;;1.30;69.00;;;;;;5053895;28;20377;-50
2021/12/26 11:46:54;;;;;;;11.23;6.07;;;1.30;68.50;;;;;;5054208;28;20025;-50
2021/12/26 11:49:39;;;;;;;13.32;6.50;;;1.20;69.60;;;;;;5053672;28;20372;-47
2021/12/26 11:52:33;;;;;;;13.93;6.70;;;1.00;70.10;;;;;;5053202;28;20104;-48
2021/12/26 11:55:30;;;;;;;9.85;6.05;;;1.20;70.00;;;;;;5053389;28;20135;-52
2021/12/26 11:58:43;;;;;;;12.50;6.68;;;1.30;69.30;;;;;;5053566;28;20029;-49
2021/12/26 12:01:14;;;;;;;12.82;7.85;;;1.50;69.30;;;;;;5053035;28;20071;-49
2021/12/26 12:03:40;;;;;;;12.60;7.18;;;1.50;69.10;;;;;;5052418;28;20102;-53
2021/12/26 12:06:06;;;;;;;11.55;6.72;;;1.70;68.90;;;;;;5053104;28;20021;-52
2021/12/26 12:08:34;;;;;;;13.98;7.07;;;1.70;68.50;;;;;;5053218;28;20029;-49
2021/12/26 12:11:05;;;;;;;14.25;7.00;;;1.60;69.00;;;;;;5053157;28;20021;-48
2021/12/26 12:13:50;;;;;;;15.00;7.70;;;1.60;69.20;;;;;;5053375;28;20052;-39
2021/12/26 12:16:22;;;;;;;15.07;7.82;;;1.40;69.80;;;;;;5053214;28;20372;-39
2021/12/26 12:18:48;;;;;;;15.60;8.15;;;1.30;70.70;;;;;;5053059;28;20031;-40
2021/12/26 12:21:20;;;;;;;15.88;8.48;;;1.30;71.00;;;;;;5053347;28;20029;-39
2021/12/26 12:24:10;;;;;;;13.60;7.50;;;1.40;70.60;;;;;;5053372;28;20056;-38
2021/12/26 12:26:40;;;;;;;15.45;8.25;;;1.40;70.80;;;;;;5053239;28;20028;-38
2021/12/26 12:29:06;;;;;;;;;;;1.50;71.00;;;;;;5053991;28;20318;-39
2021/12/26 12:31:32;;;;;;;11.30;7.35;;;1.50;71.00;;;;;;5053847;28;19904;-38
2021/12/26 12:34:10;;;;;;;12.18;7.70;;;1.50;71.10;;;;;;5053338;28;20052;-38